首页
METAR-TAF:

METAR-TAF

机场 :

康斯坦察, 罗马尼亚

纬度: 44-20N, 经度: 028-26E, 海拔: 97米

当前天气观测

该预报发布于29分钟前的14:30 UTC
风速15节,风向西转西南
温度 11°C
湿度 47%
气压 1017 hPa
能见度10公里或以上
1500米以下无云,无积雨云

METAR: LRCK 231430Z 25015KT CAVOK 11/00 Q1017 NOSIG

时间: 16:59 (14:59 UTC)

预报

该预报发布于3小时和59分钟前的11:00 UTC
预报有效从23日的 12点(UTC)到 24日的 12点(UTC)
风速15节,风向西转西南
能见度10公里或以上
1500米以下无云,无积雨云
成为
从 23日的 23点(UTC)到 24日的 01点(UTC)
风速20节,风向西转西南,有时为30节阵风
成为
从 24日的 08点(UTC)到 24日的 10点(UTC)
风速25节,风向西北,有时为35节阵风

TAF: LRCK 231100Z 2312/2412 24015KT CAVOK BECMG 2323/2401 25020G30KT BECMG 2408/2410 31025G35KT

超过4000个机场的气象观测和天气预报(METAR&TAF报告)。

可查询的气象台以黄色和红色小点在地图上表示。

将鼠标移到小点上方,可查看气象台名称。

然后点击查看天气观测和预报。

如需切换地图:点击带黑十字的绿色按钮放大地图;点击带横线的绿色按钮缩小地图;或者点击绿色箭头查看邻近地区的地图。


METAR-TAF: